createdAt,value
2019-03-15T00:03:50.470Z,3.27
2019-03-15T00:08:58.174Z,3.27
2019-03-15T00:14:05.785Z,3.38
2019-03-15T00:19:13.513Z,3.25
2019-03-15T00:24:21.273Z,3.41
2019-03-15T00:29:28.965Z,2.96
2019-03-15T00:34:36.693Z,3.22
2019-03-15T00:39:44.460Z,3.21
2019-03-15T00:44:52.223Z,3.38
2019-03-15T00:49:59.929Z,3.60
2019-03-15T00:55:07.525Z,3.52
2019-03-15T01:00:15.305Z,3.30
2019-03-15T01:05:23.009Z,3.17
2019-03-15T01:10:30.755Z,3.09
2019-03-15T01:15:38.480Z,3.56
2019-03-15T01:20:47.086Z,3.34
2019-03-15T01:25:54.905Z,3.57
2019-03-15T01:31:02.701Z,3.38
2019-03-15T01:36:10.414Z,3.46
2019-03-15T01:41:18.096Z,3.30
2019-03-15T01:46:25.781Z,3.29
2019-03-15T01:51:33.357Z,3.25
2019-03-15T01:56:41.035Z,3.18
2019-03-15T02:01:48.721Z,3.42
2019-03-15T02:06:56.369Z,3.50
2019-03-15T02:12:04.007Z,3.70
2019-03-15T02:17:13.493Z,3.65
2019-03-15T02:22:21.137Z,3.30
2019-03-15T02:27:28.946Z,3.24
2019-03-15T02:32:36.580Z,3.40
2019-03-15T02:37:44.270Z,3.47
2019-03-15T02:42:53.150Z,3.62
2019-03-15T02:47:59.293Z,3.14
2019-03-15T02:53:07.007Z,3.69
2019-03-15T02:58:14.626Z,3.26
2019-03-15T03:03:22.317Z,3.18
2019-03-15T03:08:30.064Z,3.31
2019-03-15T03:13:37.669Z,3.58
2019-03-15T03:18:45.420Z,3.46
2019-03-15T03:23:53.151Z,3.56
2019-03-15T03:29:00.833Z,3.62
2019-03-15T03:34:08.761Z,3.44
2019-03-15T03:39:15.859Z,3.43
2019-03-15T03:44:23.603Z,3.48
2019-03-15T03:49:31.235Z,3.28
2019-03-15T03:54:39.009Z,2.90
2019-03-15T03:59:46.654Z,3.34
2019-03-15T04:04:54.323Z,3.42
2019-03-15T04:10:05.451Z,3.34
2019-03-15T04:15:09.806Z,2.79
2019-03-15T04:20:17.651Z,2.96
2019-03-15T04:25:25.143Z,2.88
2019-03-15T04:30:32.902Z,3.20
2019-03-15T04:35:40.497Z,2.95
2019-03-15T04:40:48.205Z,2.97
2019-03-15T04:45:55.825Z,3.07
2019-03-15T04:51:03.582Z,3.07
2019-03-15T04:56:11.167Z,3.68
2019-03-15T05:01:18.854Z,3.39
2019-03-15T05:06:26.477Z,3.28
2019-03-15T05:11:34.169Z,3.30
2019-03-15T05:16:42.214Z,3.42
2019-03-15T05:21:49.826Z,2.68
2019-03-15T05:26:57.579Z,3.16
2019-03-15T05:32:05.190Z,3.43
2019-03-15T05:37:12.821Z,3.72
2019-03-15T05:42:20.578Z,2.73
2019-03-15T05:47:28.291Z,3.20
2019-03-15T05:52:35.992Z,2.96
2019-03-15T05:57:43.561Z,2.87
2019-03-15T06:02:51.440Z,3.41
2019-03-15T06:08:00.286Z,3.24
2019-03-15T06:13:08.066Z,2.79
2019-03-15T06:18:15.769Z,2.92
2019-03-15T06:23:23.473Z,3.21
2019-03-15T06:28:31.089Z,2.85
2019-03-15T06:33:39.235Z,3.37
2019-03-15T06:38:46.821Z,3.03
2019-03-15T06:43:54.655Z,3.07
2019-03-15T06:49:02.222Z,3.14
2019-03-15T06:54:11.743Z,3.50
2019-03-15T06:59:17.666Z,3.39
2019-03-15T07:04:25.397Z,3.20
2019-03-15T07:09:33.153Z,3.25
2019-03-15T07:14:40.908Z,4.98
2019-03-15T07:19:49.353Z,3.36
2019-03-15T07:24:57.156Z,3.48
2019-03-15T07:30:04.781Z,3.37
2019-03-15T07:35:12.489Z,3.05
2019-03-15T07:40:20.130Z,3.01
2019-03-15T07:45:27.721Z,2.93
2019-03-15T07:50:35.370Z,3.14
2019-03-15T07:55:42.958Z,4.44
2019-03-15T08:00:50.613Z,3.16
2019-03-15T08:05:58.275Z,3.77
2019-03-15T08:11:05.956Z,3.50
2019-03-15T08:16:13.620Z,3.56
2019-03-15T08:21:22.707Z,3.39
2019-03-15T08:26:30.217Z,3.95
2019-03-15T08:31:36.006Z,3.90
2019-03-15T08:36:43.718Z,4.19
2019-03-15T08:41:51.362Z,3.96
2019-03-15T08:46:58.977Z,3.83
2019-03-15T08:52:06.662Z,3.83
2019-03-15T08:57:15.135Z,3.89
2019-03-15T09:02:22.756Z,4.54
2019-03-15T09:07:30.563Z,3.80
2019-03-15T09:12:39.093Z,3.89
2019-03-15T09:17:46.912Z,3.49
2019-03-15T09:22:54.604Z,3.84
2019-03-15T09:28:02.381Z,3.92
2019-03-15T09:33:10.068Z,4.16
2019-03-15T09:38:17.690Z,3.97
2019-03-15T09:43:25.399Z,3.99
2019-03-15T09:48:33.058Z,4.90
2019-03-15T09:53:40.785Z,5.01
2019-03-15T09:58:48.670Z,5.48
2019-03-15T10:03:56.260Z,6.30
2019-03-15T10:09:03.987Z,6.70
2019-03-15T10:14:12.549Z,6.19
2019-03-15T10:19:20.337Z,5.97
2019-03-15T10:24:28.060Z,6.02
2019-03-15T10:29:35.891Z,5.84
2019-03-15T10:34:43.602Z,5.57
2019-03-15T10:39:51.516Z,5.65
2019-03-15T10:44:59.154Z,5.53
2019-03-15T10:50:06.977Z,5.46
2019-03-15T10:55:14.673Z,4.84
2019-03-15T11:00:22.306Z,4.97
2019-03-15T11:05:30.052Z,4.76
2019-03-15T11:10:37.794Z,5.73
2019-03-15T11:15:45.410Z,5.43
2019-03-15T11:20:53.118Z,5.60
2019-03-15T11:26:13.003Z,5.08
2019-03-15T11:31:07.907Z,5.54
2019-03-15T11:36:15.501Z,4.48
2019-03-15T11:41:23.309Z,4.73
2019-03-15T11:46:31.058Z,4.97
2019-03-15T11:51:38.753Z,5.09
2019-03-15T11:56:46.524Z,5.16
2019-03-15T12:02:03.567Z,4.78
2019-03-15T12:07:01.480Z,4.67
2019-03-15T12:12:09.110Z,3.79
2019-03-15T12:17:16.794Z,4.10
2019-03-15T12:22:24.562Z,3.44
2019-03-15T12:27:32.286Z,2.44
2019-03-15T12:32:40.010Z,2.36
2019-03-15T12:37:47.726Z,1.89
2019-03-15T12:42:55.329Z,1.99
2019-03-15T12:48:02.989Z,1.98
2019-03-15T12:53:10.678Z,1.80
2019-03-15T12:58:18.328Z,1.56
2019-03-15T13:03:26.061Z,1.74
2019-03-15T13:08:33.653Z,1.54
2019-03-15T13:13:41.298Z,1.05
2019-03-15T13:18:49.049Z,0.96
2019-03-15T13:23:56.835Z,1.12
2019-03-15T13:29:04.534Z,1.36
2019-03-15T13:34:12.229Z,1.46
2019-03-15T13:39:19.834Z,1.79
2019-03-15T13:44:27.550Z,1.74
2019-03-15T13:49:35.312Z,1.56
2019-03-15T13:54:42.966Z,1.60
2019-03-15T13:59:50.619Z,1.57
2019-03-15T14:04:58.408Z,1.53
2019-03-15T14:10:06.010Z,1.72
2019-03-15T14:15:13.785Z,1.53
2019-03-15T14:20:21.394Z,1.35
2019-03-15T14:25:29.272Z,1.42
2019-03-15T14:30:36.966Z,1.51
2019-03-15T14:35:44.613Z,1.31
2019-03-15T14:40:52.371Z,1.29
2019-03-15T14:46:00.181Z,1.52
2019-03-15T14:51:07.806Z,1.66
2019-03-15T14:56:15.634Z,1.73
2019-03-15T15:01:23.225Z,1.40
2019-03-15T15:06:30.969Z,1.41
2019-03-15T15:11:38.718Z,1.27
2019-03-15T15:16:46.437Z,1.37
2019-03-15T15:22:14.741Z,1.19
2019-03-15T15:27:25.519Z,1.18
2019-03-15T15:32:30.402Z,1.30
2019-03-15T15:37:39.082Z,1.36
2019-03-15T15:42:46.776Z,1.57
2019-03-15T15:47:54.469Z,1.65
2019-03-15T15:53:02.100Z,1.77
2019-03-15T15:58:17.861Z,1.56
2019-03-15T16:03:16.929Z,1.42
2019-03-15T16:08:24.637Z,1.42
2019-03-15T16:13:32.364Z,1.71
2019-03-15T16:18:40.089Z,1.60
2019-03-15T16:23:47.756Z,1.69
2019-03-15T16:28:55.534Z,1.59
2019-03-15T16:34:03.146Z,1.72
2019-03-15T16:39:10.862Z,1.48
2019-03-15T16:44:18.493Z,1.44
2019-03-15T16:49:26.174Z,1.78
2019-03-15T16:54:33.824Z,1.73
2019-03-15T16:59:41.709Z,2.13
2019-03-15T17:04:50.278Z,2.40
2019-03-15T17:09:57.865Z,1.78
2019-03-15T17:15:07.446Z,1.91
2019-03-15T17:20:15.077Z,2.02
2019-03-15T17:25:22.795Z,2.22
2019-03-15T17:30:30.567Z,2.03
2019-03-15T17:35:39.090Z,1.99
2019-03-15T17:40:46.777Z,1.89
2019-03-15T17:45:54.499Z,1.67
2019-03-15T17:51:02.209Z,1.60
2019-03-15T17:56:09.953Z,2.01
2019-03-15T18:01:17.569Z,1.86
2019-03-15T18:06:25.281Z,2.00
2019-03-15T18:11:32.953Z,2.19
2019-03-15T18:16:41.430Z,2.34
2019-03-15T18:21:49.233Z,1.99
2019-03-15T18:26:56.862Z,2.34
2019-03-15T18:32:04.506Z,2.19
2019-03-15T18:37:12.179Z,2.32
2019-03-15T18:42:19.894Z,2.63
2019-03-15T18:47:27.638Z,2.54
2019-03-15T18:52:35.446Z,2.85
2019-03-15T18:57:43.101Z,2.76
2019-03-15T19:02:50.748Z,2.50
2019-03-15T19:07:58.369Z,2.38
2019-03-15T19:13:05.933Z,2.68
2019-03-15T19:18:13.650Z,2.59
2019-03-15T19:23:21.382Z,2.37
2019-03-15T19:28:29.155Z,2.41
2019-03-15T19:33:37.721Z,2.63
2019-03-15T19:38:46.157Z,2.98
2019-03-15T19:43:53.815Z,2.71
2019-03-15T19:49:01.527Z,3.03
2019-03-15T19:54:09.317Z,2.63
2019-03-15T19:59:16.910Z,2.58
2019-03-15T20:04:24.634Z,3.19
2019-03-15T20:09:32.306Z,2.41
2019-03-15T20:14:39.987Z,2.74
2019-03-15T20:19:47.629Z,3.06
2019-03-15T20:24:55.271Z,3.29
2019-03-15T20:30:02.897Z,3.16
2019-03-15T20:35:10.480Z,3.18
2019-03-15T20:40:18.151Z,5.97
2019-03-15T20:45:25.858Z,11.68
2019-03-15T20:50:46.182Z,8.81
2019-03-15T20:55:41.056Z,3.42
2019-03-15T21:00:48.745Z,3.26
2019-03-15T21:05:56.366Z,2.89
2019-03-15T21:11:04.107Z,3.51
2019-03-15T21:16:11.813Z,2.98
2019-03-15T21:21:19.489Z,3.62
2019-03-15T21:26:27.133Z,2.96
2019-03-15T21:31:35.084Z,3.23
2019-03-15T21:36:42.768Z,2.90
2019-03-15T21:41:50.385Z,3.21
2019-03-15T21:46:58.012Z,2.79
2019-03-15T21:52:06.725Z,3.09
2019-03-15T21:57:14.727Z,3.03
2019-03-15T22:02:22.426Z,3.21
2019-03-15T22:07:30.061Z,2.95
2019-03-15T22:12:37.812Z,2.99
2019-03-15T22:17:45.458Z,3.02
2019-03-15T22:22:53.137Z,2.47
2019-03-15T22:28:00.812Z,3.29
2019-03-15T22:33:08.623Z,2.97
2019-03-15T22:38:25.553Z,3.27
2019-03-15T22:43:23.525Z,2.98
2019-03-15T22:48:31.330Z,3.00
2019-03-15T22:53:39.114Z,3.37
2019-03-15T22:58:46.853Z,3.43
2019-03-15T23:03:54.685Z,2.54
2019-03-15T23:09:02.509Z,2.94
2019-03-15T23:14:10.586Z,2.66
2019-03-15T23:19:18.250Z,3.18
2019-03-15T23:24:25.925Z,2.72
2019-03-15T23:29:33.577Z,3.14
2019-03-15T23:34:41.355Z,2.87
2019-03-15T23:39:49.438Z,3.29
2019-03-15T23:44:57.103Z,2.70
2019-03-15T23:50:05.641Z,2.78
2019-03-15T23:55:13.709Z,2.94
